createdAt,value
2022-08-01T00:01:55.010Z,39.97
2022-08-01T00:04:24.252Z,35.15
2022-08-01T00:06:54.894Z,43.00
2022-08-01T00:09:24.606Z,38.60
2022-08-01T00:11:59.500Z,34.13
2022-08-01T00:14:32.161Z,33.25
2022-08-01T00:17:07.078Z,32.00
2022-08-01T00:19:36.823Z,37.78
2022-08-01T00:22:07.751Z,33.25
2022-08-01T00:24:37.420Z,33.75
2022-08-01T00:27:06.879Z,37.22
2022-08-01T00:30:09.666Z,35.45
2022-08-01T00:32:25.487Z,34.25
2022-08-01T00:34:54.755Z,34.42
2022-08-01T00:37:25.608Z,35.88
2022-08-01T00:39:55.067Z,34.80
2022-08-01T00:42:24.466Z,36.28
2022-08-01T00:44:53.672Z,34.35
2022-08-01T00:47:22.961Z,34.33
2022-08-01T00:49:52.273Z,40.45
2022-08-01T00:52:21.926Z,35.60
2022-08-01T00:54:53.402Z,36.33
2022-08-01T00:58:01.652Z,43.33
2022-08-01T01:00:14.417Z,38.53
2022-08-01T01:02:44.902Z,39.03
2022-08-01T01:05:14.338Z,41.33
2022-08-01T01:07:50.892Z,43.03
2022-08-01T01:10:30.910Z,48.90
2022-08-01T01:13:08.603Z,48.00
2022-08-01T01:15:46.028Z,56.53
2022-08-01T01:18:22.756Z,45.58
2022-08-01T01:21:16.201Z,49.15
2022-08-01T01:24:06.643Z,53.58
2022-08-01T01:26:48.361Z,58.92
2022-08-01T01:29:23.209Z,54.92
2022-08-01T01:32:04.958Z,55.35
2022-08-01T01:34:38.204Z,60.75
2022-08-01T01:37:13.157Z,55.58
2022-08-01T01:39:45.286Z,59.42
2022-08-01T01:42:20.545Z,54.90
2022-08-01T01:44:52.484Z,59.50
2022-08-01T01:47:22.602Z,63.90
2022-08-01T01:49:54.918Z,55.15
2022-08-01T01:52:26.168Z,51.33
2022-08-01T01:54:57.002Z,61.83
2022-08-01T01:57:27.996Z,51.97
2022-08-01T01:59:59.791Z,58.13
2022-08-01T02:02:30.636Z,61.13
2022-08-01T02:05:00.502Z,57.67
2022-08-01T02:07:31.160Z,56.05
2022-08-01T02:10:02.802Z,53.45
2022-08-01T02:12:35.287Z,59.80
2022-08-01T02:15:08.397Z,55.00
2022-08-01T02:17:47.238Z,60.22
2022-08-01T02:20:18.179Z,60.00
2022-08-01T02:22:53.775Z,61.67
2022-08-01T02:25:27.619Z,63.38
2022-08-01T02:28:05.587Z,63.97
2022-08-01T02:30:38.705Z,54.35
2022-08-01T02:33:15.504Z,59.28
2022-08-01T02:36:30.666Z,53.17
2022-08-01T02:38:45.582Z,58.63
2022-08-01T02:41:22.716Z,55.58
2022-08-01T02:43:59.369Z,49.90
2022-08-01T02:46:37.321Z,53.90
2022-08-01T02:49:11.463Z,59.33
2022-08-01T02:51:43.255Z,55.65
2022-08-01T02:54:13.784Z,64.00
2022-08-01T02:56:43.893Z,56.28
2022-08-01T02:59:21.436Z,54.88
2022-08-01T03:01:56.451Z,53.75
2022-08-01T03:04:27.243Z,51.22
2022-08-01T03:06:59.655Z,54.92
2022-08-01T03:09:31.775Z,51.42
2022-08-01T03:12:07.026Z,52.88
2022-08-01T03:14:42.090Z,51.22
2022-08-01T03:17:14.342Z,54.40
2022-08-01T03:19:46.363Z,52.53
2022-08-01T03:22:17.570Z,46.58
2022-08-01T03:24:53.861Z,50.90
2022-08-01T03:27:25.674Z,48.13
2022-08-01T03:29:59.016Z,49.15
2022-08-01T03:32:30.544Z,45.55
2022-08-01T03:35:00.312Z,49.08
2022-08-01T03:37:35.138Z,36.55
2022-08-01T03:40:10.171Z,41.80
2022-08-01T03:42:50.541Z,45.88
2022-08-01T03:45:25.711Z,44.45
2022-08-01T03:48:01.813Z,47.03
2022-08-01T03:50:34.989Z,35.55
2022-08-01T03:53:06.506Z,33.78
2022-08-01T03:55:38.442Z,35.80
2022-08-01T03:58:09.967Z,38.20
2022-08-01T04:00:40.944Z,34.63
2022-08-01T04:03:13.067Z,38.05
2022-08-01T04:05:44.325Z,36.75
2022-08-01T04:08:13.648Z,31.42
2022-08-01T04:10:43.311Z,34.92
2022-08-01T04:13:12.561Z,36.20
2022-08-01T04:15:41.917Z,31.85
2022-08-01T04:18:12.466Z,30.10
2022-08-01T04:20:42.603Z,31.20
2022-08-01T04:23:12.952Z,31.95
2022-08-01T04:25:43.662Z,29.60
2022-08-01T04:28:17.385Z,29.80
2022-08-01T04:30:50.285Z,27.10
2022-08-01T04:33:22.191Z,30.20
2022-08-01T04:36:01.942Z,31.23
2022-08-01T04:38:38.160Z,29.17
2022-08-01T04:41:09.917Z,28.65
2022-08-01T04:43:39.749Z,27.20
2022-08-01T04:46:10.410Z,28.88
2022-08-01T04:48:44.239Z,27.00
2022-08-01T04:51:17.509Z,27.20
2022-08-01T04:53:47.741Z,27.95
2022-08-01T04:56:17.411Z,26.92
2022-08-01T04:59:10.186Z,27.08
2022-08-01T05:01:55.085Z,27.58
2022-08-01T05:04:25.801Z,27.27
2022-08-01T05:06:55.264Z,24.60
2022-08-01T05:09:28.174Z,24.30
2022-08-01T05:12:00.622Z,26.55
2022-08-01T05:14:33.105Z,24.05
2022-08-01T05:17:05.661Z,26.15
2022-08-01T05:19:37.918Z,25.90
2022-08-01T05:22:09.706Z,24.73
2022-08-01T05:24:41.796Z,22.65
2022-08-01T05:27:12.240Z,24.42
2022-08-01T05:29:45.476Z,26.85
2022-08-01T05:32:22.498Z,25.38
2022-08-01T05:34:53.087Z,27.15
2022-08-01T05:37:22.425Z,25.98
2022-08-01T05:39:51.587Z,24.65
2022-08-01T05:42:20.878Z,26.10
2022-08-01T05:44:51.497Z,26.65
2022-08-01T05:47:20.981Z,26.30
2022-08-01T05:49:50.248Z,27.42
2022-08-01T05:52:20.914Z,29.83
2022-08-01T05:54:50.306Z,29.40
2022-08-01T05:57:20.687Z,27.83
2022-08-01T05:59:50.004Z,28.33
2022-08-01T06:02:19.281Z,26.45
2022-08-01T06:04:48.459Z,29.15
2022-08-01T06:07:17.629Z,27.63
2022-08-01T06:09:48.316Z,28.65
2022-08-01T06:12:17.591Z,27.20
2022-08-01T06:14:46.825Z,26.83
2022-08-01T06:17:16.135Z,28.83
2022-08-01T06:19:46.453Z,31.25
2022-08-01T06:22:15.733Z,29.00
2022-08-01T06:24:45.198Z,30.88
2022-08-01T06:27:21.491Z,31.10
2022-08-01T06:29:54.482Z,31.98
2022-08-01T06:32:26.710Z,32.10
2022-08-01T06:34:57.763Z,32.50
2022-08-01T06:37:31.647Z,35.35
2022-08-01T06:40:03.925Z,31.75
2022-08-01T06:42:36.636Z,34.40
2022-08-01T06:47:35.232Z,33.80
2022-08-01T06:50:05.485Z,35.15
2022-08-01T06:52:39.311Z,35.88
2022-08-01T06:55:09.922Z,37.33
2022-08-01T06:57:49.267Z,40.17
2022-08-01T07:00:23.436Z,57.97
2022-08-01T07:02:53.315Z,63.17
2022-08-01T07:05:23.484Z,57.60
2022-08-01T07:07:53.124Z,64.40
2022-08-01T07:10:22.498Z,61.38
2022-08-01T07:12:53.301Z,62.20
2022-08-01T07:15:27.446Z,62.88
2022-08-01T07:17:58.110Z,62.08
2022-08-01T07:20:27.582Z,54.40
2022-08-01T07:22:57.043Z,48.90
2022-08-01T07:25:26.725Z,42.55
2022-08-01T07:27:57.562Z,38.75
2022-08-01T07:30:27.495Z,33.40
2022-08-01T07:32:56.743Z,34.05
2022-08-01T07:35:26.083Z,36.17
2022-08-01T07:37:55.386Z,38.72
2022-08-01T07:40:24.707Z,36.05
2022-08-01T07:42:54.017Z,37.20
2022-08-01T07:45:24.958Z,42.13
2022-08-01T07:47:54.272Z,40.15
2022-08-01T07:50:23.573Z,48.50
2022-08-01T07:52:52.873Z,52.70
2022-08-01T07:55:22.291Z,46.30
2022-08-01T07:57:51.576Z,60.35
2022-08-01T08:00:21.356Z,53.00
2022-08-01T08:02:51.996Z,55.15
2022-08-01T08:05:57.929Z,57.08
2022-08-01T08:08:12.589Z,43.50
2022-08-01T08:10:41.979Z,46.63
2022-08-01T08:13:11.401Z,46.38
2022-08-01T08:15:41.193Z,50.75
2022-08-01T08:18:11.824Z,58.90
2022-08-01T08:20:41.094Z,68.72
2022-08-01T08:23:41.625Z,86.05
2022-08-01T08:26:13.190Z,85.15
2022-08-01T08:28:42.560Z,49.92
2022-08-01T08:31:24.616Z,100.43
2022-08-01T08:33:56.707Z,87.80
2022-08-01T08:36:30.742Z,101.60
2022-08-01T08:39:01.778Z,119.95
2022-08-01T08:41:37.676Z,100.05
2022-08-01T08:44:10.856Z,127.95
2022-08-01T08:46:45.201Z,151.98
2022-08-01T08:49:20.657Z,130.88
2022-08-01T08:51:53.449Z,156.80
2022-08-01T08:54:31.020Z,157.82
2022-08-01T08:57:02.750Z,181.73
2022-08-01T08:59:32.253Z,181.75
2022-08-01T09:02:01.923Z,145.15
2022-08-01T09:04:32.516Z,164.05
2022-08-01T09:07:01.695Z,166.27
2022-08-01T09:09:30.872Z,176.35
2022-08-01T09:12:01.786Z,156.90
2022-08-01T09:14:32.575Z,188.30
2022-08-01T09:17:07.648Z,170.88
2022-08-01T09:19:44.344Z,191.25
2022-08-01T09:22:19.215Z,174.27
2022-08-01T09:25:03.074Z,176.30
2022-08-01T09:27:33.527Z,157.63
2022-08-01T09:30:12.935Z,183.40
2022-08-01T09:33:01.778Z,174.93
2022-08-01T09:35:43.263Z,195.43
2022-08-01T09:38:19.249Z,189.60
2022-08-01T09:40:55.705Z,192.50
2022-08-01T09:43:27.487Z,186.50
2022-08-01T09:45:58.336Z,201.13
2022-08-01T09:48:30.188Z,205.57
2022-08-01T09:51:07.410Z,187.15
2022-08-01T09:53:52.111Z,194.45
2022-08-01T09:56:25.101Z,205.95
2022-08-01T09:59:00.412Z,221.32
2022-08-01T10:01:45.015Z,202.93
2022-08-01T10:04:18.249Z,187.63
2022-08-01T10:06:55.535Z,158.65
2022-08-01T10:09:35.964Z,192.32
2022-08-01T10:12:15.597Z,132.18
2022-08-01T10:14:50.271Z,146.25
2022-08-01T10:17:22.605Z,132.70
2022-08-01T10:22:32.639Z,111.53
2022-08-01T10:25:07.796Z,118.03
2022-08-01T10:27:40.814Z,124.97
2022-08-01T10:30:19.737Z,136.15
2022-08-01T10:32:54.808Z,142.25
2022-08-01T10:35:47.610Z,174.45
2022-08-01T10:38:16.701Z,153.13
2022-08-01T10:40:47.234Z,145.65
2022-08-01T10:43:21.171Z,160.07
2022-08-01T10:45:53.025Z,123.03
2022-08-01T10:48:29.879Z,100.40
2022-08-01T10:51:02.604Z,120.00
2022-08-01T10:53:42.397Z,94.85
2022-08-01T10:56:14.981Z,83.57
2022-08-01T10:58:48.712Z,93.22
2022-08-01T11:01:29.331Z,113.93
2022-08-01T11:04:08.414Z,106.55
2022-08-01T11:06:49.389Z,125.85
2022-08-01T11:09:37.336Z,112.82
2022-08-01T11:12:13.266Z,121.07
2022-08-01T11:15:31.006Z,94.00
2022-08-01T11:18:05.714Z,94.18
2022-08-01T11:20:39.529Z,103.78
2022-08-01T11:23:23.588Z,98.57
2022-08-01T11:26:18.754Z,97.50
2022-08-01T11:29:21.735Z,117.68
2022-08-01T11:31:53.934Z,95.65
2022-08-01T11:34:56.525Z,117.30
2022-08-01T11:37:30.610Z,99.80
2022-08-01T11:40:22.984Z,96.35
2022-08-01T11:43:19.779Z,77.43
2022-08-01T11:45:53.797Z,83.38
2022-08-01T11:48:27.562Z,111.93
2022-08-01T11:51:02.075Z,84.78
2022-08-01T11:53:34.474Z,97.10
2022-08-01T11:56:06.759Z,110.07
2022-08-01T11:58:37.770Z,87.82
2022-08-01T12:01:08.120Z,89.75
2022-08-01T12:03:38.170Z,102.88
2022-08-01T12:06:07.807Z,113.05
2022-08-01T12:08:38.568Z,112.35
2022-08-01T12:11:08.258Z,92.32
2022-08-01T12:13:45.980Z,104.17
2022-08-01T12:16:15.609Z,92.65
2022-08-01T12:18:45.770Z,75.93
2022-08-01T12:21:15.143Z,99.65
2022-08-01T12:23:44.522Z,105.78
2022-08-01T12:26:29.449Z,105.72
2022-08-01T12:29:03.176Z,90.38
2022-08-01T12:31:37.041Z,94.45
2022-08-01T12:34:30.145Z,99.88
2022-08-01T12:37:03.757Z,82.32
2022-08-01T12:39:35.517Z,88.75
2022-08-01T12:42:11.569Z,92.97
2022-08-01T12:44:45.374Z,83.97
2022-08-01T12:47:16.573Z,109.38
2022-08-01T12:49:46.911Z,91.88
2022-08-01T12:52:18.375Z,88.43
2022-08-01T12:55:16.069Z,71.27
2022-08-01T12:57:50.957Z,110.50
2022-08-01T13:00:25.017Z,96.60
2022-08-01T13:03:07.756Z,105.30
2022-08-01T13:05:48.024Z,81.30
2022-08-01T13:08:19.425Z,101.63
2022-08-01T13:10:49.848Z,103.88
2022-08-01T13:13:27.846Z,108.60
2022-08-01T13:16:12.379Z,108.45
2022-08-01T13:18:52.371Z,90.63
2022-08-01T13:21:24.400Z,86.40
2022-08-01T13:24:06.917Z,86.63
2022-08-01T13:29:15.282Z,110.35
2022-08-01T13:31:46.709Z,91.07
2022-08-01T13:34:18.129Z,120.95
2022-08-01T13:36:49.591Z,116.00
2022-08-01T13:39:36.737Z,105.33
2022-08-01T13:42:06.934Z,116.05
2022-08-01T13:44:36.357Z,101.32
2022-08-01T13:47:15.264Z,102.55
2022-08-01T13:49:46.912Z,103.50
2022-08-01T13:52:16.308Z,106.20
2022-08-01T13:54:45.631Z,95.05
2022-08-01T13:57:15.499Z,129.00
2022-08-01T13:59:44.887Z,118.13
2022-08-01T14:02:15.524Z,104.90
2022-08-01T14:04:45.231Z,107.13
2022-08-01T14:07:15.349Z,109.70
2022-08-01T14:10:04.342Z,108.22
2022-08-01T14:12:41.379Z,108.72
2022-08-01T14:15:36.651Z,105.22
2022-08-01T14:18:06.813Z,102.60
2022-08-01T14:20:37.968Z,100.43
2022-08-01T14:23:08.603Z,100.97
2022-08-01T14:26:03.432Z,115.75
2022-08-01T14:28:31.320Z,149.80
2022-08-01T14:31:01.201Z,126.68
2022-08-01T14:33:32.010Z,155.15
2022-08-01T14:36:20.631Z,102.80
2022-08-01T14:38:53.372Z,101.30
2022-08-01T14:41:22.827Z,106.72
2022-08-01T14:43:52.048Z,141.93
2022-08-01T14:46:21.337Z,107.60
2022-08-01T14:48:52.008Z,116.53
2022-08-01T14:51:21.315Z,106.47
2022-08-01T14:53:52.985Z,108.03
2022-08-01T14:56:22.689Z,99.65
2022-08-01T14:58:52.329Z,99.35
2022-08-01T15:01:21.676Z,100.78
2022-08-01T15:03:52.364Z,91.28
2022-08-01T15:06:21.682Z,101.57
2022-08-01T15:08:50.823Z,126.65
2022-08-01T15:11:20.090Z,103.97
2022-08-01T15:14:10.791Z,94.63
2022-08-01T15:16:40.402Z,100.13
2022-08-01T15:19:11.177Z,115.07
2022-08-01T15:21:41.913Z,107.18
2022-08-01T15:24:11.605Z,113.40
2022-08-01T15:26:41.133Z,106.50
2022-08-01T15:29:10.353Z,137.25
2022-08-01T15:31:39.905Z,112.70
2022-08-01T15:34:10.741Z,109.43
2022-08-01T15:36:42.090Z,110.70
2022-08-01T15:39:13.297Z,113.80
2022-08-01T15:41:42.496Z,124.47
2022-08-01T15:44:11.708Z,103.47
2022-08-01T15:46:40.988Z,150.27
2022-08-01T15:49:11.841Z,96.78
2022-08-01T15:51:41.177Z,119.82
2022-08-01T15:54:14.614Z,94.45
2022-08-01T15:56:44.600Z,97.15
2022-08-01T15:59:14.652Z,111.38
2022-08-01T16:01:44.312Z,103.55
2022-08-01T16:04:15.136Z,107.00
2022-08-01T16:06:44.753Z,97.82
2022-08-01T16:09:18.402Z,107.05
2022-08-01T16:11:51.034Z,100.68
2022-08-01T16:14:21.687Z,105.22
2022-08-01T16:16:51.233Z,90.20
2022-08-01T16:19:21.967Z,99.35
2022-08-01T16:21:52.414Z,91.85
2022-08-01T16:24:22.217Z,95.68
2022-08-01T16:26:51.540Z,87.65
2022-08-01T16:29:20.740Z,99.68
2022-08-01T16:32:16.997Z,100.85
2022-08-01T16:34:41.452Z,100.35
2022-08-01T16:37:16.591Z,125.35
2022-08-01T16:39:46.005Z,107.88
2022-08-01T16:42:17.036Z,215.07
2022-08-01T16:44:46.817Z,98.75
2022-08-01T16:47:19.200Z,93.38
2022-08-01T16:49:50.224Z,134.25
2022-08-01T16:52:19.513Z,116.60
2022-08-01T16:54:48.738Z,97.30
2022-08-01T16:57:17.960Z,110.05
2022-08-01T16:59:47.160Z,100.78
2022-08-01T17:02:16.543Z,112.80
2022-08-01T17:04:45.707Z,102.53
2022-08-01T17:07:16.847Z,117.03
2022-08-01T17:09:46.132Z,101.53
2022-08-01T17:12:22.152Z,110.75
2022-08-01T17:14:52.313Z,99.20
2022-08-01T17:17:22.438Z,128.50
2022-08-01T17:19:52.722Z,109.38
2022-08-01T17:22:23.441Z,102.57
2022-08-01T17:24:52.878Z,162.48
2022-08-01T17:27:22.128Z,163.20
2022-08-01T17:29:51.638Z,103.32
2022-08-01T17:32:21.349Z,110.72
2022-08-01T17:34:51.356Z,156.10
2022-08-01T17:37:20.647Z,93.05
2022-08-01T17:39:51.794Z,118.32
2022-08-01T17:42:21.193Z,131.57
2022-08-01T17:44:52.090Z,105.35
2022-08-01T17:47:48.021Z,136.13
2022-08-01T17:50:14.081Z,109.32
2022-08-01T17:52:44.019Z,106.00
2022-08-01T17:55:53.720Z,106.97
2022-08-01T17:58:06.084Z,119.38
2022-08-01T18:00:36.914Z,110.22
2022-08-01T18:03:08.315Z,123.97
2022-08-01T18:05:38.428Z,178.90
2022-08-01T18:08:08.501Z,209.05
2022-08-01T18:10:40.003Z,97.93
2022-08-01T18:13:09.785Z,103.70
2022-08-01T18:15:39.238Z,98.70
2022-08-01T18:18:08.740Z,116.53
2022-08-01T18:20:38.893Z,102.57
2022-08-01T18:23:10.439Z,105.00
2022-08-01T18:25:41.836Z,111.50
2022-08-01T18:28:29.863Z,94.38
2022-08-01T18:31:00.679Z,92.32
2022-08-01T18:33:30.266Z,156.35
2022-08-01T18:36:01.770Z,103.28
2022-08-01T18:38:33.695Z,97.93
2022-08-01T18:41:10.322Z,103.57
2022-08-01T18:43:39.993Z,143.60
2022-08-01T18:46:10.131Z,98.30
2022-08-01T18:48:44.613Z,140.55
2022-08-01T18:51:13.925Z,243.23
2022-08-01T18:53:43.298Z,142.00
2022-08-01T18:56:17.804Z,221.70
2022-08-01T18:58:47.312Z,162.50
2022-08-01T19:01:18.146Z,122.88
2022-08-01T19:03:47.741Z,133.23
2022-08-01T19:06:17.231Z,113.93
2022-08-01T19:08:46.617Z,166.43
2022-08-01T19:11:17.443Z,156.77
2022-08-01T19:13:50.136Z,155.80
2022-08-01T19:16:19.670Z,186.07
2022-08-01T19:18:49.393Z,141.80
2022-08-01T19:21:19.206Z,127.72
2022-08-01T19:24:06.068Z,162.30
2022-08-01T19:26:38.190Z,132.18
2022-08-01T19:29:15.796Z,135.50
2022-08-01T19:31:49.039Z,97.20
2022-08-01T19:34:26.849Z,115.97
2022-08-01T19:37:02.204Z,152.63
2022-08-01T19:39:31.910Z,255.35
2022-08-01T19:42:04.298Z,167.25
2022-08-01T19:44:34.507Z,161.93
2022-08-01T19:47:04.434Z,126.68
2022-08-01T19:49:34.822Z,190.88
2022-08-01T19:52:06.503Z,150.50
2022-08-01T19:54:38.459Z,153.00
2022-08-01T19:57:11.754Z,130.15
2022-08-01T19:59:42.691Z,114.60
2022-08-01T20:02:16.294Z,121.57
2022-08-01T20:04:46.154Z,114.82
2022-08-01T20:07:16.224Z,118.65
2022-08-01T20:09:54.238Z,151.07
2022-08-01T20:12:25.787Z,119.15
2022-08-01T20:14:55.447Z,132.18
2022-08-01T20:17:25.674Z,146.63
2022-08-01T20:19:56.041Z,120.72
2022-08-01T20:22:31.444Z,111.25
2022-08-01T20:25:02.412Z,127.15
2022-08-01T20:27:34.067Z,118.20
2022-08-01T20:30:04.019Z,99.55
2022-08-01T20:32:40.452Z,102.55
2022-08-01T20:35:13.848Z,137.10
2022-08-01T20:40:35.099Z,90.07
2022-08-01T20:43:06.996Z,254.75
2022-08-01T20:45:40.232Z,100.13
2022-08-01T20:48:12.614Z,114.07
2022-08-01T20:51:02.091Z,128.95
2022-08-01T20:53:41.129Z,129.55
2022-08-01T20:56:18.023Z,134.23
2022-08-01T20:59:07.444Z,110.53
2022-08-01T21:01:41.341Z,147.05
2022-08-01T21:07:24.979Z,172.65
2022-08-01T21:10:04.825Z,98.85
2022-08-01T21:12:45.173Z,206.40
2022-08-01T21:15:26.167Z,88.60
2022-08-01T21:18:03.628Z,232.02
2022-08-01T21:20:35.627Z,101.55
2022-08-01T21:23:23.296Z,109.30
2022-08-01T21:25:58.572Z,124.97
2022-08-01T21:28:29.442Z,116.95
2022-08-01T21:31:05.831Z,97.50
2022-08-01T21:34:02.507Z,130.07
2022-08-01T21:36:32.796Z,117.75
2022-08-01T21:39:04.563Z,105.03
2022-08-01T21:42:05.289Z,178.25
2022-08-01T21:44:29.219Z,108.20
2022-08-01T21:47:01.553Z,197.85
2022-08-01T21:49:31.304Z,158.85
2022-08-01T21:52:09.974Z,258.27
2022-08-01T21:54:52.592Z,161.38
2022-08-01T21:57:41.291Z,151.57
2022-08-01T22:00:25.003Z,144.63
2022-08-01T22:03:08.776Z,98.75
2022-08-01T22:05:49.866Z,142.02
2022-08-01T22:08:29.950Z,212.23
2022-08-01T22:11:04.571Z,183.07
2022-08-01T22:13:35.814Z,114.43
2022-08-01T22:16:07.425Z,226.15
2022-08-01T22:18:39.599Z,98.80
2022-08-01T22:21:10.989Z,192.77
2022-08-01T22:23:40.863Z,101.55
2022-08-01T22:26:13.175Z,249.98
2022-08-01T22:28:42.806Z,90.03
2022-08-01T22:31:12.314Z,91.30
2022-08-01T22:33:43.299Z,117.35
2022-08-01T22:36:13.951Z,101.63
2022-08-01T22:38:44.374Z,100.50
2022-08-01T22:41:17.558Z,257.60
2022-08-01T22:43:57.113Z,93.18
2022-08-01T22:46:35.185Z,116.28
2022-08-01T22:49:22.829Z,134.32
2022-08-01T22:52:05.667Z,111.85
2022-08-01T22:57:17.390Z,156.82
2022-08-01T22:59:56.751Z,122.50
2022-08-01T23:02:29.578Z,167.77
2022-08-01T23:05:05.758Z,129.73
2022-08-01T23:07:39.327Z,130.73
2022-08-01T23:10:10.902Z,105.70
2022-08-01T23:12:42.012Z,90.40
2022-08-01T23:15:13.464Z,330.40
2022-08-01T23:17:45.049Z,132.02
2022-08-01T23:20:16.601Z,139.43
2022-08-01T23:25:17.476Z,129.55
2022-08-01T23:27:51.530Z,128.05
2022-08-01T23:30:36.781Z,194.75
2022-08-01T23:33:06.418Z,132.45
2022-08-01T23:35:39.021Z,96.38
2022-08-01T23:38:10.250Z,84.97
2022-08-01T23:40:40.219Z,142.68
2022-08-01T23:43:16.691Z,164.50
2022-08-01T23:46:03.867Z,162.40
2022-08-01T23:48:35.566Z,98.55
2022-08-01T23:51:09.235Z,170.52
2022-08-01T23:53:39.095Z,130.30
2022-08-01T23:56:08.507Z,108.65
2022-08-01T23:58:37.648Z,221.60
